sensor_id;sensor_type;location;lat;lon;timestamp;P1;durP1;ratioP1;P2;durP2;ratioP2
12412;SDS011;13877;18.896;-99.222;2022-10-16T00:01:08;12.82;;;6.95;;
12412;SDS011;13877;18.896;-99.222;2022-10-16T00:03:39;15.05;;;7.30;;
12412;SDS011;13877;18.896;-99.222;2022-10-16T00:06:07;17.23;;;7.70;;
12412;SDS011;13877;18.896;-99.222;2022-10-16T00:08:35;15.73;;;7.63;;
12412;SDS011;13877;18.896;-99.222;2022-10-16T00:11:03;16.27;;;7.88;;
12412;SDS011;13877;18.896;-99.222;2022-10-16T00:13:32;21.23;;;7.53;;
12412;SDS011;13877;18.896;-99.222;2022-10-16T00:16:01;17.40;;;7.57;;
12412;SDS011;13877;18.896;-99.222;2022-10-16T00:18:29;16.15;;;7.72;;
12412;SDS011;13877;18.896;-99.222;2022-10-16T00:21:01;17.33;;;6.88;;
12412;SDS011;13877;18.896;-99.222;2022-10-16T00:23:30;16.88;;;7.53;;
12412;SDS011;13877;18.896;-99.222;2022-10-16T00:25:58;11.65;;;7.43;;
12412;SDS011;13877;18.896;-99.222;2022-10-16T00:28:27;14.52;;;8.02;;
12412;SDS011;13877;18.896;-99.222;2022-10-16T00:30:54;19.02;;;7.55;;
12412;SDS011;13877;18.896;-99.222;2022-10-16T00:33:21;15.23;;;8.32;;
12412;SDS011;13877;18.896;-99.222;2022-10-16T00:35:48;22.95;;;8.63;;
12412;SDS011;13877;18.896;-99.222;2022-10-16T00:38:16;18.98;;;9.07;;
12412;SDS011;13877;18.896;-99.222;2022-10-16T00:40:43;24.30;;;10.52;;
12412;SDS011;13877;18.896;-99.222;2022-10-16T00:43:53;24.63;;;10.35;;
12412;SDS011;13877;18.896;-99.222;2022-10-16T00:46:10;24.75;;;10.90;;
12412;SDS011;13877;18.896;-99.222;2022-10-16T00:48:49;28.13;;;11.00;;
12412;SDS011;13877;18.896;-99.222;2022-10-16T00:51:24;21.92;;;10.38;;
12412;SDS011;13877;18.896;-99.222;2022-10-16T00:53:56;28.73;;;10.35;;
12412;SDS011;13877;18.896;-99.222;2022-10-16T00:56:23;17.05;;;9.38;;
12412;SDS011;13877;18.896;-99.222;2022-10-16T00:58:50;18.17;;;8.52;;
12412;SDS011;13877;18.896;-99.222;2022-10-16T01:01:17;26.77;;;8.85;;
12412;SDS011;13877;18.896;-99.222;2022-10-16T01:03:45;28.02;;;10.13;;
12412;SDS011;13877;18.896;-99.222;2022-10-16T01:11:40;23.52;;;10.13;;
12412;SDS011;13877;18.896;-99.222;2022-10-16T01:14:22;20.05;;;9.50;;
12412;SDS011;13877;18.896;-99.222;2022-10-16T01:17:00;20.42;;;9.93;;
12412;SDS011;13877;18.896;-99.222;2022-10-16T01:22:10;18.38;;;9.98;;
12412;SDS011;13877;18.896;-99.222;2022-10-16T01:24:39;23.42;;;9.55;;
12412;SDS011;13877;18.896;-99.222;2022-10-16T01:30:07;19.17;;;9.80;;
12412;SDS011;13877;18.896;-99.222;2022-10-16T01:32:40;23.70;;;10.43;;
12412;SDS011;13877;18.896;-99.222;2022-10-16T01:35:28;19.70;;;10.45;;
12412;SDS011;13877;18.896;-99.222;2022-10-16T01:38:09;18.77;;;10.52;;
12412;SDS011;13877;18.896;-99.222;2022-10-16T01:40:43;26.60;;;10.98;;
12412;SDS011;13877;18.896;-99.222;2022-10-16T01:43:24;22.50;;;10.13;;
12412;SDS011;13877;18.896;-99.222;2022-10-16T01:45:59;19.05;;;10.07;;
12412;SDS011;13877;18.896;-99.222;2022-10-16T01:48:27;23.10;;;9.80;;
12412;SDS011;13877;18.896;-99.222;2022-10-16T01:51:00;26.42;;;10.98;;
12412;SDS011;13877;18.896;-99.222;2022-10-16T01:53:48;24.10;;;11.43;;
12412;SDS011;13877;18.896;-99.222;2022-10-16T01:56:19;22.25;;;11.32;;
12412;SDS011;13877;18.896;-99.222;2022-10-16T01:58:59;26.70;;;11.55;;
12412;SDS011;13877;18.896;-99.222;2022-10-16T02:01:31;28.70;;;12.10;;
12412;SDS011;13877;18.896;-99.222;2022-10-16T02:04:04;24.52;;;13.32;;
12412;SDS011;13877;18.896;-99.222;2022-10-16T02:06:52;35.47;;;15.18;;
12412;SDS011;13877;18.896;-99.222;2022-10-16T02:09:19;29.70;;;12.68;;
12412;SDS011;13877;18.896;-99.222;2022-10-16T02:11:46;23.98;;;12.88;;
12412;SDS011;13877;18.896;-99.222;2022-10-16T02:14:14;33.22;;;13.70;;
12412;SDS011;13877;18.896;-99.222;2022-10-16T02:16:43;26.65;;;13.38;;
12412;SDS011;13877;18.896;-99.222;2022-10-16T02:19:12;19.05;;;12.15;;
12412;SDS011;13877;18.896;-99.222;2022-10-16T02:27:06;30.92;;;12.82;;
12412;SDS011;13877;18.896;-99.222;2022-10-16T02:29:41;26.90;;;13.73;;
12412;SDS011;13877;18.896;-99.222;2022-10-16T02:32:18;26.40;;;13.57;;
12412;SDS011;13877;18.896;-99.222;2022-10-16T02:34:48;23.83;;;13.85;;
12412;SDS011;13877;18.896;-99.222;2022-10-16T02:37:17;25.05;;;13.77;;
12412;SDS011;13877;18.896;-99.222;2022-10-16T02:39:44;29.15;;;14.75;;
12412;SDS011;13877;18.896;-99.222;2022-10-16T02:42:12;27.00;;;15.27;;
12412;SDS011;13877;18.896;-99.222;2022-10-16T02:44:40;29.58;;;14.63;;
12412;SDS011;13877;18.896;-99.222;2022-10-16T02:47:07;28.25;;;15.00;;
12412;SDS011;13877;18.896;-99.222;2022-10-16T02:49:34;29.52;;;15.23;;
12412;SDS011;13877;18.896;-99.222;2022-10-16T02:52:01;33.90;;;16.85;;
12412;SDS011;13877;18.896;-99.222;2022-10-16T02:54:29;35.47;;;16.65;;
12412;SDS011;13877;18.896;-99.222;2022-10-16T02:56:55;28.42;;;15.75;;
12412;SDS011;13877;18.896;-99.222;2022-10-16T02:59:23;30.73;;;15.70;;
12412;SDS011;13877;18.896;-99.222;2022-10-16T03:01:50;33.63;;;16.33;;
12412;SDS011;13877;18.896;-99.222;2022-10-16T03:04:17;36.00;;;16.60;;
12412;SDS011;13877;18.896;-99.222;2022-10-16T03:06:44;35.60;;;16.45;;
12412;SDS011;13877;18.896;-99.222;2022-10-16T03:09:11;33.70;;;16.80;;
12412;SDS011;13877;18.896;-99.222;2022-10-16T03:11:38;38.38;;;17.67;;
12412;SDS011;13877;18.896;-99.222;2022-10-16T03:14:05;36.63;;;16.90;;
12412;SDS011;13877;18.896;-99.222;2022-10-16T03:16:33;39.45;;;16.33;;
12412;SDS011;13877;18.896;-99.222;2022-10-16T03:19:00;34.08;;;16.65;;
12412;SDS011;13877;18.896;-99.222;2022-10-16T03:21:28;29.23;;;16.63;;
12412;SDS011;13877;18.896;-99.222;2022-10-16T03:23:55;30.98;;;15.55;;
12412;SDS011;13877;18.896;-99.222;2022-10-16T03:26:23;35.67;;;15.00;;
12412;SDS011;13877;18.896;-99.222;2022-10-16T03:28:50;27.30;;;13.93;;
12412;SDS011;13877;18.896;-99.222;2022-10-16T03:31:17;33.85;;;15.02;;
12412;SDS011;13877;18.896;-99.222;2022-10-16T03:33:44;28.17;;;13.15;;
12412;SDS011;13877;18.896;-99.222;2022-10-16T03:36:11;26.17;;;13.00;;
12412;SDS011;13877;18.896;-99.222;2022-10-16T03:38:37;22.65;;;13.15;;
12412;SDS011;13877;18.896;-99.222;2022-10-16T03:41:04;27.48;;;13.30;;
12412;SDS011;13877;18.896;-99.222;2022-10-16T03:43:33;21.10;;;12.35;;
12412;SDS011;13877;18.896;-99.222;2022-10-16T03:46:00;26.92;;;11.85;;
12412;SDS011;13877;18.896;-99.222;2022-10-16T03:48:27;24.30;;;11.48;;
12412;SDS011;13877;18.896;-99.222;2022-10-16T03:50:54;22.17;;;12.20;;
12412;SDS011;13877;18.896;-99.222;2022-10-16T03:53:21;26.17;;;11.52;;
12412;SDS011;13877;18.896;-99.222;2022-10-16T03:55:48;26.27;;;11.73;;
12412;SDS011;13877;18.896;-99.222;2022-10-16T03:58:16;23.85;;;11.68;;
12412;SDS011;13877;18.896;-99.222;2022-10-16T04:00:43;22.77;;;11.40;;
12412;SDS011;13877;18.896;-99.222;2022-10-16T04:03:11;25.13;;;13.07;;
12412;SDS011;13877;18.896;-99.222;2022-10-16T04:05:38;28.60;;;13.10;;
12412;SDS011;13877;18.896;-99.222;2022-10-16T04:08:05;34.28;;;13.18;;
12412;SDS011;13877;18.896;-99.222;2022-10-16T04:10:32;25.23;;;13.98;;
12412;SDS011;13877;18.896;-99.222;2022-10-16T04:12:59;37.40;;;16.08;;
12412;SDS011;13877;18.896;-99.222;2022-10-16T04:15:26;38.30;;;16.58;;
12412;SDS011;13877;18.896;-99.222;2022-10-16T04:17:53;36.70;;;17.98;;
12412;SDS011;13877;18.896;-99.222;2022-10-16T04:20:20;34.88;;;17.10;;
12412;SDS011;13877;18.896;-99.222;2022-10-16T04:22:47;32.25;;;17.80;;
12412;SDS011;13877;18.896;-99.222;2022-10-16T04:25:14;46.63;;;17.95;;
12412;SDS011;13877;18.896;-99.222;2022-10-16T04:27:41;52.33;;;21.77;;
12412;SDS011;13877;18.896;-99.222;2022-10-16T04:30:08;43.72;;;19.25;;
12412;SDS011;13877;18.896;-99.222;2022-10-16T04:32:37;47.25;;;19.10;;
12412;SDS011;13877;18.896;-99.222;2022-10-16T04:35:03;39.70;;;19.73;;
12412;SDS011;13877;18.896;-99.222;2022-10-16T04:37:31;39.50;;;19.13;;
12412;SDS011;13877;18.896;-99.222;2022-10-16T04:39:57;51.70;;;18.88;;
12412;SDS011;13877;18.896;-99.222;2022-10-16T04:42:25;54.45;;;19.95;;
12412;SDS011;13877;18.896;-99.222;2022-10-16T04:44:52;45.42;;;18.73;;
12412;SDS011;13877;18.896;-99.222;2022-10-16T04:47:19;38.72;;;18.65;;
12412;SDS011;13877;18.896;-99.222;2022-10-16T04:49:46;36.80;;;17.75;;
12412;SDS011;13877;18.896;-99.222;2022-10-16T04:52:13;34.70;;;16.73;;
12412;SDS011;13877;18.896;-99.222;2022-10-16T04:54:40;41.72;;;18.70;;
12412;SDS011;13877;18.896;-99.222;2022-10-16T04:57:07;37.08;;;17.83;;
12412;SDS011;13877;18.896;-99.222;2022-10-16T04:59:34;40.83;;;17.95;;
12412;SDS011;13877;18.896;-99.222;2022-10-16T05:02:01;40.10;;;17.05;;
12412;SDS011;13877;18.896;-99.222;2022-10-16T05:04:29;40.17;;;17.88;;
12412;SDS011;13877;18.896;-99.222;2022-10-16T05:06:56;40.47;;;18.52;;
12412;SDS011;13877;18.896;-99.222;2022-10-16T05:09:23;46.97;;;19.10;;
12412;SDS011;13877;18.896;-99.222;2022-10-16T05:11:50;40.70;;;16.73;;
12412;SDS011;13877;18.896;-99.222;2022-10-16T05:14:17;44.20;;;17.45;;
12412;SDS011;13877;18.896;-99.222;2022-10-16T05:16:44;34.08;;;15.07;;
12412;SDS011;13877;18.896;-99.222;2022-10-16T05:19:11;30.52;;;12.68;;
12412;SDS011;13877;18.896;-99.222;2022-10-16T05:21:38;31.42;;;13.38;;
12412;SDS011;13877;18.896;-99.222;2022-10-16T05:24:05;24.88;;;12.70;;
12412;SDS011;13877;18.896;-99.222;2022-10-16T05:26:32;28.02;;;12.10;;
12412;SDS011;13877;18.896;-99.222;2022-10-16T05:28:58;25.23;;;11.07;;
12412;SDS011;13877;18.896;-99.222;2022-10-16T05:31:26;28.90;;;11.05;;
12412;SDS011;13877;18.896;-99.222;2022-10-16T05:33:57;24.13;;;10.77;;
12412;SDS011;13877;18.896;-99.222;2022-10-16T05:36:25;33.75;;;11.77;;
12412;SDS011;13877;18.896;-99.222;2022-10-16T05:38:52;29.65;;;11.48;;
12412;SDS011;13877;18.896;-99.222;2022-10-16T05:41:19;27.75;;;12.23;;
12412;SDS011;13877;18.896;-99.222;2022-10-16T05:43:47;25.00;;;11.75;;
12412;SDS011;13877;18.896;-99.222;2022-10-16T05:46:15;20.30;;;11.45;;
12412;SDS011;13877;18.896;-99.222;2022-10-16T05:48:42;18.63;;;11.43;;
12412;SDS011;13877;18.896;-99.222;2022-10-16T05:51:11;23.42;;;11.52;;
12412;SDS011;13877;18.896;-99.222;2022-10-16T05:53:39;19.13;;;10.90;;
12412;SDS011;13877;18.896;-99.222;2022-10-16T05:56:07;22.35;;;10.38;;
12412;SDS011;13877;18.896;-99.222;2022-10-16T05:58:36;20.08;;;11.88;;
12412;SDS011;13877;18.896;-99.222;2022-10-16T06:01:07;25.17;;;11.05;;
12412;SDS011;13877;18.896;-99.222;2022-10-16T06:03:39;23.15;;;10.43;;
12412;SDS011;13877;18.896;-99.222;2022-10-16T06:06:16;19.67;;;10.50;;
12412;SDS011;13877;18.896;-99.222;2022-10-16T06:08:46;25.05;;;10.88;;
12412;SDS011;13877;18.896;-99.222;2022-10-16T06:11:17;32.70;;;11.68;;
12412;SDS011;13877;18.896;-99.222;2022-10-16T06:13:50;21.10;;;10.95;;
12412;SDS011;13877;18.896;-99.222;2022-10-16T06:16:17;16.75;;;9.95;;
12412;SDS011;13877;18.896;-99.222;2022-10-16T06:18:45;15.02;;;9.70;;
12412;SDS011;13877;18.896;-99.222;2022-10-16T06:21:14;32.97;;;10.52;;
12412;SDS011;13877;18.896;-99.222;2022-10-16T06:23:44;18.80;;;9.68;;
12412;SDS011;13877;18.896;-99.222;2022-10-16T06:26:15;26.80;;;10.55;;
12412;SDS011;13877;18.896;-99.222;2022-10-16T06:28:45;24.63;;;10.05;;
12412;SDS011;13877;18.896;-99.222;2022-10-16T06:31:12;19.23;;;9.73;;
12412;SDS011;13877;18.896;-99.222;2022-10-16T06:33:40;19.02;;;9.88;;
12412;SDS011;13877;18.896;-99.222;2022-10-16T06:36:11;14.90;;;9.48;;
12412;SDS011;13877;18.896;-99.222;2022-10-16T06:38:39;22.33;;;9.43;;
12412;SDS011;13877;18.896;-99.222;2022-10-16T06:41:07;15.10;;;8.75;;
12412;SDS011;13877;18.896;-99.222;2022-10-16T06:43:37;19.13;;;9.43;;
12412;SDS011;13877;18.896;-99.222;2022-10-16T06:46:05;21.25;;;9.95;;
12412;SDS011;13877;18.896;-99.222;2022-10-16T06:48:34;23.47;;;9.67;;
12412;SDS011;13877;18.896;-99.222;2022-10-16T06:53:34;15.80;;;8.75;;
12412;SDS011;13877;18.896;-99.222;2022-10-16T06:56:09;16.60;;;9.57;;
12412;SDS011;13877;18.896;-99.222;2022-10-16T06:58:38;15.57;;;9.40;;
12412;SDS011;13877;18.896;-99.222;2022-10-16T07:01:05;14.48;;;8.63;;
12412;SDS011;13877;18.896;-99.222;2022-10-16T07:03:35;18.25;;;8.68;;
12412;SDS011;13877;18.896;-99.222;2022-10-16T07:06:05;15.15;;;8.52;;
12412;SDS011;13877;18.896;-99.222;2022-10-16T07:08:33;11.35;;;7.75;;
12412;SDS011;13877;18.896;-99.222;2022-10-16T07:11:02;16.70;;;9.10;;
12412;SDS011;13877;18.896;-99.222;2022-10-16T07:13:33;16.65;;;8.38;;
12412;SDS011;13877;18.896;-99.222;2022-10-16T07:16:05;16.17;;;8.38;;
12412;SDS011;13877;18.896;-99.222;2022-10-16T07:18:32;15.88;;;9.45;;
12412;SDS011;13877;18.896;-99.222;2022-10-16T07:21:19;16.80;;;8.90;;
12412;SDS011;13877;18.896;-99.222;2022-10-16T07:23:50;16.08;;;8.38;;
12412;SDS011;13877;18.896;-99.222;2022-10-16T07:26:17;12.95;;;8.43;;
12412;SDS011;13877;18.896;-99.222;2022-10-16T07:28:44;16.90;;;9.48;;
12412;SDS011;13877;18.896;-99.222;2022-10-16T07:31:12;22.40;;;8.15;;
12412;SDS011;13877;18.896;-99.222;2022-10-16T07:33:40;15.60;;;9.43;;
12412;SDS011;13877;18.896;-99.222;2022-10-16T07:36:10;13.85;;;8.63;;
12412;SDS011;13877;18.896;-99.222;2022-10-16T07:38:38;20.08;;;8.55;;
12412;SDS011;13877;18.896;-99.222;2022-10-16T07:41:06;20.27;;;9.60;;
12412;SDS011;13877;18.896;-99.222;2022-10-16T07:43:33;16.67;;;9.07;;
12412;SDS011;13877;18.896;-99.222;2022-10-16T07:46:00;17.73;;;9.35;;
12412;SDS011;13877;18.896;-99.222;2022-10-16T07:48:28;15.63;;;8.90;;
12412;SDS011;13877;18.896;-99.222;2022-10-16T07:50:57;18.52;;;8.55;;
12412;SDS011;13877;18.896;-99.222;2022-10-16T07:53:25;19.20;;;8.10;;
12412;SDS011;13877;18.896;-99.222;2022-10-16T07:56:03;17.15;;;8.05;;
12412;SDS011;13877;18.896;-99.222;2022-10-16T07:58:33;18.70;;;8.60;;
12412;SDS011;13877;18.896;-99.222;2022-10-16T08:01:04;17.70;;;9.68;;
12412;SDS011;13877;18.896;-99.222;2022-10-16T08:03:37;20.55;;;9.95;;
12412;SDS011;13877;18.896;-99.222;2022-10-16T08:06:04;29.05;;;11.02;;
12412;SDS011;13877;18.896;-99.222;2022-10-16T08:08:31;17.33;;;9.63;;
12412;SDS011;13877;18.896;-99.222;2022-10-16T08:10:58;24.55;;;9.98;;
12412;SDS011;13877;18.896;-99.222;2022-10-16T08:13:25;22.15;;;9.85;;
12412;SDS011;13877;18.896;-99.222;2022-10-16T08:15:53;25.67;;;10.75;;
12412;SDS011;13877;18.896;-99.222;2022-10-16T08:18:21;18.00;;;10.25;;
12412;SDS011;13877;18.896;-99.222;2022-10-16T08:20:54;16.20;;;10.32;;
12412;SDS011;13877;18.896;-99.222;2022-10-16T08:23:24;15.93;;;9.20;;
12412;SDS011;13877;18.896;-99.222;2022-10-16T08:25:52;19.20;;;9.90;;
12412;SDS011;13877;18.896;-99.222;2022-10-16T08:28:22;16.38;;;9.73;;
12412;SDS011;13877;18.896;-99.222;2022-10-16T08:30:49;21.55;;;9.90;;
12412;SDS011;13877;18.896;-99.222;2022-10-16T08:33:17;19.90;;;9.65;;
12412;SDS011;13877;18.896;-99.222;2022-10-16T08:35:49;19.52;;;9.77;;
12412;SDS011;13877;18.896;-99.222;2022-10-16T08:38:19;19.52;;;9.50;;
12412;SDS011;13877;18.896;-99.222;2022-10-16T08:40:46;18.52;;;9.00;;
12412;SDS011;13877;18.896;-99.222;2022-10-16T08:45:54;21.17;;;9.45;;
12412;SDS011;13877;18.896;-99.222;2022-10-16T08:48:35;13.13;;;8.63;;
12412;SDS011;13877;18.896;-99.222;2022-10-16T08:51:35;21.15;;;9.10;;
12412;SDS011;13877;18.896;-99.222;2022-10-16T08:56:30;21.67;;;8.32;;
12412;SDS011;13877;18.896;-99.222;2022-10-16T08:58:59;15.88;;;7.53;;
12412;SDS011;13877;18.896;-99.222;2022-10-16T09:01:43;14.35;;;8.25;;
12412;SDS011;13877;18.896;-99.222;2022-10-16T09:06:57;18.02;;;8.57;;
12412;SDS011;13877;18.896;-99.222;2022-10-16T09:14:39;13.27;;;8.17;;
12412;SDS011;13877;18.896;-99.222;2022-10-16T09:17:30;15.57;;;8.65;;
12412;SDS011;13877;18.896;-99.222;2022-10-16T09:25:42;19.02;;;7.97;;
12412;SDS011;13877;18.896;-99.222;2022-10-16T09:28:11;16.07;;;7.87;;
12412;SDS011;13877;18.896;-99.222;2022-10-16T09:30:38;11.40;;;7.53;;
12412;SDS011;13877;18.896;-99.222;2022-10-16T09:33:05;11.07;;;6.65;;
12412;SDS011;13877;18.896;-99.222;2022-10-16T09:35:38;18.70;;;7.00;;
12412;SDS011;13877;18.896;-99.222;2022-10-16T09:38:08;12.02;;;7.07;;
12412;SDS011;13877;18.896;-99.222;2022-10-16T09:40:46;15.98;;;7.30;;
12412;SDS011;13877;18.896;-99.222;2022-10-16T09:43:26;14.93;;;6.95;;
12412;SDS011;13877;18.896;-99.222;2022-10-16T09:46:01;13.68;;;7.13;;
12412;SDS011;13877;18.896;-99.222;2022-10-16T09:51:05;15.93;;;7.68;;
12412;SDS011;13877;18.896;-99.222;2022-10-16T09:53:43;14.30;;;8.70;;
12412;SDS011;13877;18.896;-99.222;2022-10-16T09:56:12;13.00;;;8.00;;
12412;SDS011;13877;18.896;-99.222;2022-10-16T09:58:53;15.23;;;8.73;;
12412;SDS011;13877;18.896;-99.222;2022-10-16T10:01:22;13.90;;;9.80;;
12412;SDS011;13877;18.896;-99.222;2022-10-16T10:04:01;12.80;;;8.85;;
12412;SDS011;13877;18.896;-99.222;2022-10-16T10:06:29;14.70;;;9.35;;
12412;SDS011;13877;18.896;-99.222;2022-10-16T10:19:40;18.77;;;9.30;;
12412;SDS011;13877;18.896;-99.222;2022-10-16T10:22:40;20.75;;;10.05;;
12412;SDS011;13877;18.896;-99.222;2022-10-16T10:27:53;14.05;;;8.60;;
12412;SDS011;13877;18.896;-99.222;2022-10-16T10:33:34;21.10;;;8.98;;
12412;SDS011;13877;18.896;-99.222;2022-10-16T10:36:22;17.23;;;9.32;;
12412;SDS011;13877;18.896;-99.222;2022-10-16T10:44:15;15.35;;;8.85;;
12412;SDS011;13877;18.896;-99.222;2022-10-16T10:47:03;16.27;;;9.10;;
12412;SDS011;13877;18.896;-99.222;2022-10-16T10:50:04;19.45;;;8.65;;
12412;SDS011;13877;18.896;-99.222;2022-10-16T11:07:17;17.45;;;9.13;;
12412;SDS011;13877;18.896;-99.222;2022-10-16T11:09:52;20.98;;;9.93;;
12412;SDS011;13877;18.896;-99.222;2022-10-16T11:12:27;17.17;;;10.07;;
12412;SDS011;13877;18.896;-99.222;2022-10-16T11:15:13;21.23;;;9.52;;
12412;SDS011;13877;18.896;-99.222;2022-10-16T11:17:48;15.15;;;8.80;;
12412;SDS011;13877;18.896;-99.222;2022-10-16T11:23:10;19.98;;;8.85;;
12412;SDS011;13877;18.896;-99.222;2022-10-16T11:25:47;18.27;;;8.75;;
12412;SDS011;13877;18.896;-99.222;2022-10-16T11:28:17;15.43;;;7.63;;
12412;SDS011;13877;18.896;-99.222;2022-10-16T11:30:49;22.17;;;8.40;;
12412;SDS011;13877;18.896;-99.222;2022-10-16T11:33:28;17.95;;;7.68;;
12412;SDS011;13877;18.896;-99.222;2022-10-16T11:36:20;16.88;;;7.75;;
12412;SDS011;13877;18.896;-99.222;2022-10-16T11:39:45;14.48;;;8.13;;
12412;SDS011;13877;18.896;-99.222;2022-10-16T11:42:11;21.42;;;8.00;;
12412;SDS011;13877;18.896;-99.222;2022-10-16T11:49:57;21.20;;;7.80;;
12412;SDS011;13877;18.896;-99.222;2022-10-16T11:55:37;13.93;;;7.68;;
12412;SDS011;13877;18.896;-99.222;2022-10-16T11:58:08;13.90;;;8.13;;
12412;SDS011;13877;18.896;-99.222;2022-10-16T12:06:49;17.08;;;8.45;;
12412;SDS011;13877;18.896;-99.222;2022-10-16T12:09:38;17.25;;;7.63;;
12412;SDS011;13877;18.896;-99.222;2022-10-16T12:15:01;17.67;;;8.48;;
12412;SDS011;13877;18.896;-99.222;2022-10-16T12:17:43;22.77;;;8.30;;
12412;SDS011;13877;18.896;-99.222;2022-10-16T12:22:55;19.42;;;8.20;;
12412;SDS011;13877;18.896;-99.222;2022-10-16T12:25:34;16.17;;;8.10;;
12412;SDS011;13877;18.896;-99.222;2022-10-16T12:28:26;23.88;;;8.63;;
12412;SDS011;13877;18.896;-99.222;2022-10-16T12:30:57;14.10;;;8.07;;
12412;SDS011;13877;18.896;-99.222;2022-10-16T12:36:04;14.23;;;7.88;;
12412;SDS011;13877;18.896;-99.222;2022-10-16T12:38:46;18.65;;;8.05;;
12412;SDS011;13877;18.896;-99.222;2022-10-16T12:41:23;17.77;;;8.05;;
12412;SDS011;13877;18.896;-99.222;2022-10-16T12:43:58;19.70;;;9.20;;
12412;SDS011;13877;18.896;-99.222;2022-10-16T12:51:40;14.73;;;8.40;;
12412;SDS011;13877;18.896;-99.222;2022-10-16T12:54:18;22.70;;;9.75;;
12412;SDS011;13877;18.896;-99.222;2022-10-16T12:56:51;29.20;;;9.20;;
12412;SDS011;13877;18.896;-99.222;2022-10-16T13:05:21;19.77;;;9.98;;
12412;SDS011;13877;18.896;-99.222;2022-10-16T13:10:55;16.33;;;9.18;;
12412;SDS011;13877;18.896;-99.222;2022-10-16T13:13:35;18.17;;;9.45;;
12412;SDS011;13877;18.896;-99.222;2022-10-16T13:19:28;25.88;;;10.20;;
12412;SDS011;13877;18.896;-99.222;2022-10-16T13:25:18;20.98;;;10.25;;
12412;SDS011;13877;18.896;-99.222;2022-10-16T13:28:11;17.30;;;9.30;;
12412;SDS011;13877;18.896;-99.222;2022-10-16T13:30:41;19.88;;;9.68;;
12412;SDS011;13877;18.896;-99.222;2022-10-16T13:33:20;25.23;;;9.50;;
12412;SDS011;13877;18.896;-99.222;2022-10-16T13:36:18;15.57;;;8.75;;
12412;SDS011;13877;18.896;-99.222;2022-10-16T13:38:59;19.23;;;8.95;;
12412;SDS011;13877;18.896;-99.222;2022-10-16T13:41:33;28.65;;;9.55;;
12412;SDS011;13877;18.896;-99.222;2022-10-16T13:44:00;24.35;;;8.35;;
12412;SDS011;13877;18.896;-99.222;2022-10-16T13:46:27;16.85;;;9.15;;
12412;SDS011;13877;18.896;-99.222;2022-10-16T13:48:58;12.68;;;6.97;;
12412;SDS011;13877;18.896;-99.222;2022-10-16T13:51:27;9.65;;;6.53;;
12412;SDS011;13877;18.896;-99.222;2022-10-16T13:53:55;18.98;;;8.30;;
12412;SDS011;13877;18.896;-99.222;2022-10-16T13:56:27;16.92;;;7.80;;
12412;SDS011;13877;18.896;-99.222;2022-10-16T13:59:01;18.30;;;8.35;;
12412;SDS011;13877;18.896;-99.222;2022-10-16T14:01:31;12.10;;;7.13;;
12412;SDS011;13877;18.896;-99.222;2022-10-16T14:04:08;17.77;;;7.35;;
12412;SDS011;13877;18.896;-99.222;2022-10-16T14:06:40;18.40;;;6.97;;
12412;SDS011;13877;18.896;-99.222;2022-10-16T14:09:20;9.20;;;5.40;;
12412;SDS011;13877;18.896;-99.222;2022-10-16T14:14:24;8.20;;;4.65;;
12412;SDS011;13877;18.896;-99.222;2022-10-16T14:16:59;8.88;;;5.28;;
12412;SDS011;13877;18.896;-99.222;2022-10-16T14:19:27;7.80;;;5.10;;
12412;SDS011;13877;18.896;-99.222;2022-10-16T14:21:56;14.63;;;5.40;;
12412;SDS011;13877;18.896;-99.222;2022-10-16T14:24:33;13.98;;;6.28;;
12412;SDS011;13877;18.896;-99.222;2022-10-16T14:27:01;10.80;;;6.00;;
12412;SDS011;13877;18.896;-99.222;2022-10-16T14:29:29;11.50;;;5.45;;
12412;SDS011;13877;18.896;-99.222;2022-10-16T14:32:02;6.90;;;4.82;;
12412;SDS011;13877;18.896;-99.222;2022-10-16T14:34:34;14.32;;;4.53;;
12412;SDS011;13877;18.896;-99.222;2022-10-16T14:37:19;11.85;;;4.43;;
12412;SDS011;13877;18.896;-99.222;2022-10-16T14:39:52;9.00;;;4.72;;
12412;SDS011;13877;18.896;-99.222;2022-10-16T14:42:20;7.60;;;4.88;;
12412;SDS011;13877;18.896;-99.222;2022-10-16T14:44:52;9.93;;;4.20;;
12412;SDS011;13877;18.896;-99.222;2022-10-16T14:47:22;10.80;;;4.57;;
12412;SDS011;13877;18.896;-99.222;2022-10-16T14:49:52;8.65;;;4.43;;
12412;SDS011;13877;18.896;-99.222;2022-10-16T14:52:24;8.75;;;4.68;;
12412;SDS011;13877;18.896;-99.222;2022-10-16T14:54:51;12.02;;;5.55;;
12412;SDS011;13877;18.896;-99.222;2022-10-16T14:57:23;10.82;;;4.97;;
12412;SDS011;13877;18.896;-99.222;2022-10-16T15:02:25;10.23;;;4.95;;
12412;SDS011;13877;18.896;-99.222;2022-10-16T15:04:58;10.07;;;4.47;;
12412;SDS011;13877;18.896;-99.222;2022-10-16T15:07:52;14.60;;;4.95;;
12412;SDS011;13877;18.896;-99.222;2022-10-16T15:10:20;10.85;;;4.57;;
12412;SDS011;13877;18.896;-99.222;2022-10-16T15:12:49;12.82;;;5.85;;
12412;SDS011;13877;18.896;-99.222;2022-10-16T15:17:53;15.30;;;6.15;;
12412;SDS011;13877;18.896;-99.222;2022-10-16T15:20:23;10.02;;;5.30;;
12412;SDS011;13877;18.896;-99.222;2022-10-16T15:22:50;8.23;;;5.10;;
12412;SDS011;13877;18.896;-99.222;2022-10-16T15:25:41;13.07;;;5.65;;
12412;SDS011;13877;18.896;-99.222;2022-10-16T15:28:12;10.10;;;6.00;;
12412;SDS011;13877;18.896;-99.222;2022-10-16T15:30:41;14.20;;;5.80;;
12412;SDS011;13877;18.896;-99.222;2022-10-16T15:33:12;8.25;;;5.40;;
12412;SDS011;13877;18.896;-99.222;2022-10-16T15:35:41;8.82;;;5.57;;
12412;SDS011;13877;18.896;-99.222;2022-10-16T15:38:12;12.50;;;5.68;;
12412;SDS011;13877;18.896;-99.222;2022-10-16T15:40:39;9.75;;;5.57;;
12412;SDS011;13877;18.896;-99.222;2022-10-16T15:43:07;10.77;;;5.93;;
12412;SDS011;13877;18.896;-99.222;2022-10-16T15:45:34;10.10;;;5.72;;
12412;SDS011;13877;18.896;-99.222;2022-10-16T15:48:01;16.45;;;6.65;;
12412;SDS011;13877;18.896;-99.222;2022-10-16T15:50:29;10.32;;;5.80;;
12412;SDS011;13877;18.896;-99.222;2022-10-16T15:52:58;9.95;;;5.70;;
12412;SDS011;13877;18.896;-99.222;2022-10-16T15:55:24;11.48;;;5.50;;
12412;SDS011;13877;18.896;-99.222;2022-10-16T15:57:51;9.93;;;5.57;;
12412;SDS011;13877;18.896;-99.222;2022-10-16T16:00:19;11.88;;;5.00;;
12412;SDS011;13877;18.896;-99.222;2022-10-16T16:02:52;13.68;;;5.82;;
12412;SDS011;13877;18.896;-99.222;2022-10-16T16:05:20;22.80;;;5.60;;
12412;SDS011;13877;18.896;-99.222;2022-10-16T16:07:49;9.00;;;5.95;;
12412;SDS011;13877;18.896;-99.222;2022-10-16T16:10:17;13.27;;;5.32;;
12412;SDS011;13877;18.896;-99.222;2022-10-16T16:12:47;14.57;;;5.57;;
12412;SDS011;13877;18.896;-99.222;2022-10-16T16:15:18;9.55;;;4.95;;
12412;SDS011;13877;18.896;-99.222;2022-10-16T16:17:46;8.77;;;5.40;;
12412;SDS011;13877;18.896;-99.222;2022-10-16T16:20:13;7.65;;;5.03;;
12412;SDS011;13877;18.896;-99.222;2022-10-16T16:22:41;15.13;;;5.57;;
12412;SDS011;13877;18.896;-99.222;2022-10-16T16:25:08;9.85;;;4.53;;
12412;SDS011;13877;18.896;-99.222;2022-10-16T16:27:35;8.23;;;5.55;;
12412;SDS011;13877;18.896;-99.222;2022-10-16T16:30:05;13.95;;;5.55;;
12412;SDS011;13877;18.896;-99.222;2022-10-16T16:32:33;7.57;;;5.25;;
12412;SDS011;13877;18.896;-99.222;2022-10-16T16:35:01;10.07;;;6.00;;
12412;SDS011;13877;18.896;-99.222;2022-10-16T16:37:29;9.43;;;5.00;;
12412;SDS011;13877;18.896;-99.222;2022-10-16T16:39:56;7.75;;;5.28;;